Time;durP1;ratioP1;P1;durP2;ratioP2;P2;SDS_P1;SDS_P2;PMS_P1;PMS_P2;Temp;Humidity;BMP_temperature;BMP_pressure;BME280_temperature;BME280_humidity;BME280_pressure;Samples;Min_cycle;Max_cycle;Signal;HPM_P1;HPM_P2
2020/12/01 00:03:32;;;;;;;20.35;14.52;;;;;;;4.40;100.00;100684.16;10446805;28;20045;-69
2020/12/01 00:08:37;;;;;;;19.48;14.27;;;;;;;4.38;100.00;100681.56;10439165;28;20040;-70
2020/12/01 00:13:38;;;;;;;20.70;16.50;;;;;;;4.33;100.00;100669.53;10457353;28;20053;-69
2020/12/01 00:18:40;;;;;;;19.27;14.45;;;;;;;4.35;100.00;100665.16;10445273;28;20123;-69
2020/12/01 00:23:42;;;;;;;16.73;13.25;;;;;;;4.30;100.00;100661.75;10450112;28;20036;-69
2020/12/01 00:28:45;;;;;;;18.52;12.50;;;;;;;4.32;100.00;100649.53;10474395;28;20049;-69
2020/12/01 00:33:47;;;;;;;17.50;12.90;;;;;;;4.36;100.00;100657.25;10457305;28;20400;-69
2020/12/01 00:38:48;;;;;;;17.63;13.57;;;;;;;4.37;100.00;100655.53;10457732;28;20460;-70
2020/12/01 00:43:49;;;;;;;20.63;18.50;;;;;;;4.38;100.00;100659.84;10456966;28;20404;-69
2020/12/01 00:48:51;;;;;;;16.60;14.70;;;;;;;4.40;100.00;100653.72;10433449;28;20045;-69
2020/12/01 00:53:53;;;;;;;18.95;14.27;;;;;;;4.42;100.00;100657.19;10438055;28;20076;-69
2020/12/01 00:58:55;;;;;;;17.83;14.10;;;;;;;4.42;100.00;100651.09;10453745;28;20059;-69
2020/12/01 01:04:05;;;;;;;17.60;14.88;;;;;;;4.37;100.00;100627.69;10435050;28;20049;-69
2020/12/01 01:09:06;;;;;;;16.55;13.05;;;;;;;4.38;100.00;100612.91;10411543;28;20096;-69
2020/12/01 01:14:07;;;;;;;17.27;14.82;;;;;;;4.48;100.00;100625.75;10413398;28;20053;-69
2020/12/01 01:19:12;;;;;;;17.15;14.00;;;;;;;4.48;100.00;100638.78;10440020;28;20464;-69
2020/12/01 01:24:18;;;;;;;17.35;14.85;;;;;;;4.49;100.00;100624.88;10469605;28;20048;-69
2020/12/01 01:29:21;;;;;;;17.63;14.63;;;;;;;4.48;100.00;100627.50;10488440;28;20072;-69
2020/12/01 01:34:24;;;;;;;24.50;17.65;;;;;;;4.52;100.00;100619.56;10495165;28;20040;-69
2020/12/01 01:39:25;;;;;;;21.90;16.20;;;;;;;4.57;100.00;100616.88;10495344;28;20040;-69
2020/12/01 01:44:29;;;;;;;19.65;16.15;;;;;;;4.58;100.00;100610.78;10470333;28;20045;-69
2020/12/01 01:49:39;;;;;;;18.48;15.18;;;;;;;4.63;100.00;100613.28;10435722;28;20045;-69
2020/12/01 01:54:44;;;;;;;21.70;17.98;;;;;;;4.65;100.00;100606.31;10447667;28;20040;-69
2020/12/01 01:59:48;;;;;;;22.35;16.90;;;;;;;4.69;100.00;100606.19;10439639;28;20060;-69
2020/12/01 02:04:49;;;;;;;22.40;16.93;;;;;;;4.67;100.00;100600.16;10413884;28;20042;-69
2020/12/01 02:09:55;;;;;;;23.48;18.67;;;;;;;4.75;100.00;100605.22;10411736;28;20038;-69
2020/12/01 02:15:05;;;;;;;22.45;17.88;;;;;;;4.79;100.00;100599.03;10433469;28;20052;-69
2020/12/01 02:20:08;;;;;;;25.55;18.73;;;;;;;4.84;100.00;100587.63;10452637;28;20052;-69
2020/12/01 02:25:09;;;;;;;25.77;21.35;;;;;;;4.89;100.00;100587.53;10463187;28;20045;-69
2020/12/01 02:30:11;;;;;;;24.42;18.55;;;;;;;4.90;100.00;100584.03;10422602;28;20057;-69
2020/12/01 02:35:12;;;;;;;25.08;19.08;;;;;;;4.96;100.00;100582.13;10421233;28;20507;-69
2020/12/01 02:40:16;;;;;;;23.27;18.50;;;;;;;5.04;100.00;100591.53;10420716;28;20033;-69
2020/12/01 02:45:17;;;;;;;22.25;17.20;;;;;;;5.09;100.00;100580.13;10418096;28;20457;-69
2020/12/01 02:50:18;;;;;;;24.55;18.85;;;;;;;5.15;100.00;100576.50;10420870;28;20052;-69
2020/12/01 02:55:19;;;;;;;24.08;19.15;;;;;;;5.24;100.00;100574.56;10420466;28;20042;-69
2020/12/01 03:00:21;;;;;;;20.60;17.17;;;;;;;5.27;100.00;100568.41;10458941;28;20053;-69
2020/12/01 03:05:22;;;;;;;21.45;17.10;;;;;;;5.29;100.00;100564.84;10429138;28;20435;-69
2020/12/01 03:10:23;;;;;;;20.23;15.48;;;;;;;5.30;100.00;100573.53;10434317;28;20562;-69
2020/12/01 03:15:25;;;;;;;19.65;14.75;;;;;;;5.34;100.00;100577.81;10460585;28;20048;-69
2020/12/01 03:20:26;;;;;;;18.08;14.68;;;;;;;5.35;100.00;100569.09;10460543;28;20041;-69
2020/12/01 03:25:27;;;;;;;16.63;13.15;;;;;;;5.42;100.00;100564.56;10440563;28;20048;-69
2020/12/01 03:30:28;;;;;;;16.52;13.30;;;;;;;5.39;100.00;100565.50;10447381;28;20053;-69
2020/12/01 03:35:29;;;;;;;19.73;13.80;;;;;;;5.46;100.00;100567.06;10425922;28;20049;-69
2020/12/01 03:40:31;;;;;;;17.55;13.73;;;;;;;5.45;100.00;100567.09;10450507;28;20041;-69
2020/12/01 03:45:32;;;;;;;16.08;12.30;;;;;;;5.49;100.00;100572.22;10455428;28;20048;-69
2020/12/01 03:50:34;;;;;;;18.05;11.35;;;;;;;5.53;100.00;100565.16;10459185;28;20507;-69
2020/12/01 03:55:35;;;;;;;14.18;10.48;;;;;;;5.52;100.00;100561.72;10458362;28;20038;-69
2020/12/01 04:00:36;;;;;;;19.17;12.38;;;;;;;5.53;100.00;100566.00;10434365;28;20060;-69
2020/12/01 04:05:38;;;;;;;20.45;11.32;;;;;;;5.54;100.00;100567.72;10425061;28;20132;-69
2020/12/01 04:10:40;;;;;;;14.13;6.97;;;;;;;5.52;100.00;100566.94;10426050;28;20049;-69
2020/12/01 04:15:41;;;;;;;10.85;6.05;;;;;;;5.48;100.00;100564.41;10422701;28;20047;-69
2020/12/01 04:20:42;;;;;;;7.82;4.70;;;;;;;5.39;100.00;100573.31;10457973;28;20063;-69
2020/12/01 04:25:44;;;;;;;6.45;3.50;;;;;;;5.39;100.00;100572.47;10485008;28;20059;-69
2020/12/01 04:30:46;;;;;;;6.53;2.65;;;;;;;5.46;100.00;100580.13;10457114;28;20048;-69
2020/12/01 04:35:47;;;;;;;8.35;2.97;;;;;;;5.49;100.00;100577.44;10443989;28;20374;-69
2020/12/01 04:40:48;;;;;;;9.80;3.58;;;;;;;5.45;100.00;100581.00;10457513;28;20045;-69
2020/12/01 04:45:51;;;;;;;10.48;5.32;;;;;;;5.45;100.00;100578.41;10455715;28;20388;-69
2020/12/01 04:50:59;;;;;;;15.90;6.32;;;;;;;5.49;100.00;100587.03;10457189;28;20048;-69
2020/12/01 04:56:27;;;;;;;15.88;6.78;;;;;;;5.50;100.00;100587.00;10466505;28;20043;-69
2020/12/01 05:02:03;;;;;;;13.35;6.65;;;;;;;5.44;100.00;100588.91;10469017;28;20048;-70
2020/12/01 05:07:39;;;;;;;15.07;8.30;;;;;;;5.48;100.00;100587.94;10451349;28;20049;-69
2020/12/01 05:12:53;;;;;;;19.35;11.13;;;;;;;5.49;100.00;100594.88;10455901;28;20079;-69
2020/12/01 05:18:15;;;;;;;21.88;13.52;;;;;;;5.46;100.00;100589.72;10454291;28;20053;-69
2020/12/01 05:23:21;;;;;;;24.85;12.43;;;;;;;5.45;100.00;100594.06;10462260;28;20040;-69
2020/12/01 05:28:22;;;;;;;22.38;12.63;;;;;;;5.48;100.00;100607.09;10482406;28;20044;-70
2020/12/01 05:33:30;;;;;;;25.92;15.38;;;;;;;5.51;100.00;100608.78;10448942;28;20040;-70
2020/12/01 05:38:41;;;;;;;19.65;12.43;;;;;;;5.53;100.00;100618.28;10444388;28;20041;-69
2020/12/01 05:43:44;;;;;;;17.02;11.98;;;;;;;5.55;100.00;100620.84;10451897;28;20048;-70
2020/12/01 05:49:02;;;;;;;27.45;14.40;;;;;;;5.58;100.00;100613.81;10453109;28;20098;-70
2020/12/01 05:54:03;;;;;;;25.40;15.07;;;;;;;5.64;100.00;100618.03;10418478;28;20476;-69
2020/12/01 05:59:15;;;;;;;24.67;15.13;;;;;;;5.65;100.00;100614.53;10411200;28;20061;-70
2020/12/01 06:04:20;;;;;;;35.83;15.77;;;;;;;5.64;100.00;100616.28;10439246;28;20033;-70
2020/12/01 06:09:35;;;;;;;;;;;;;;;5.67;100.00;100623.19;10435339;28;20041;-70
2020/12/01 06:14:42;;;;;;;22.95;11.90;;;;;;;5.69;100.00;100618.78;10422068;28;20015;-70
2020/12/01 06:19:50;;;;;;;26.13;12.90;;;;;;;5.69;100.00;100617.00;10443699;28;20038;-70
2020/12/01 06:25:07;;;;;;;29.20;13.15;;;;;;;5.65;100.00;100614.53;10442614;28;20049;-70
2020/12/01 06:30:22;;;;;;;30.63;13.30;;;;;;;5.67;100.00;100620.56;10453230;28;20488;-70
2020/12/01 06:35:45;;;;;;;27.48;13.68;;;;;;;5.69;100.00;100627.47;10453619;28;20037;-70
2020/12/01 06:40:52;;;;;;;28.02;13.13;;;;;;;5.71;100.00;100627.44;10453828;28;20423;-70
2020/12/01 06:45:57;;;;;;;28.85;12.90;;;;;;;5.71;100.00;100637.88;10454748;28;20041;-70
2020/12/01 06:51:00;;;;;;;23.40;12.63;;;;;;;5.71;100.00;100637.88;10454013;28;20060;-69
2020/12/01 06:56:04;;;;;;;27.98;12.75;;;;;;;5.75;100.00;100641.31;10432743;28;20045;-69
2020/12/01 07:01:17;;;;;;;26.50;14.33;;;;;;;5.78;100.00;100647.28;10446634;28;20053;-69
2020/12/01 07:06:34;;;;;;;32.00;16.02;;;;;;;5.75;100.00;100655.22;10436083;28;20071;-69
2020/12/01 07:12:07;;;;;;;29.27;14.70;;;;;;;5.75;100.00;100659.59;10403591;28;20100;-69
2020/12/01 07:17:17;;;;;;;30.40;15.43;;;;;;;5.76;100.00;100670.03;10410843;28;20584;-69
2020/12/01 07:22:47;;;;;;;31.65;16.48;;;;;;;5.78;100.00;100675.19;10434235;28;20057;-69
2020/12/01 07:27:51;;;;;;;23.92;13.02;;;;;;;5.76;100.00;100680.47;10433839;28;20055;-69
2020/12/01 07:32:58;;;;;;;29.15;15.02;;;;;;;5.72;100.00;100681.44;10460296;28;20044;-69
2020/12/01 07:38:03;;;;;;;34.00;17.33;;;;;;;5.76;100.00;100677.88;10458991;28;20037;-69
2020/12/01 07:43:04;;;;;;;32.30;16.90;;;;;;;5.76;100.00;100680.47;10460755;28;20056;-69
2020/12/01 07:48:05;;;;;;;30.13;17.23;;;;;;;5.71;100.00;100680.56;10459850;28;20519;-69
2020/12/01 07:53:10;;;;;;;29.75;14.85;;;;;;;5.73;100.00;100693.59;10460169;28;20051;-69
2020/12/01 07:58:21;;;;;;;27.05;14.68;;;;;;;5.91;100.00;100701.06;10453995;28;20049;-69
2020/12/01 08:03:27;;;;;;;31.48;16.33;;;;;;;6.08;100.00;100711.97;10456234;28;20045;-69
2020/12/01 08:08:35;;;;;;;28.38;15.52;;;;;;;5.89;100.00;100712.44;10426635;28;20045;-69
2020/12/01 08:13:38;;;;;;;26.65;15.55;;;;;;;5.86;100.00;100726.41;10431134;28;20045;-69
2020/12/01 08:18:40;;;;;;;27.90;16.15;;;;;;;5.82;100.00;100721.28;10430214;28;20087;-69
2020/12/01 08:23:45;;;;;;;32.67;15.60;;;;;;;5.87;100.00;100724.66;10467675;28;20594;-69
2020/12/01 08:29:01;;;;;;;28.10;14.90;;;;;;;5.88;100.00;100732.50;10494830;28;20048;-69
2020/12/01 08:34:16;;;;;;;28.98;14.63;;;;;;;5.88;100.00;100726.41;10415955;28;20053;-69
2020/12/01 08:39:51;;;;;;;26.83;13.68;;;;;;;6.07;100.00;100744.25;10416690;28;20044;-64
2020/12/01 08:45:11;;;;;;;29.55;14.38;;;;;;;6.09;100.00;100758.16;10475107;28;20738;-71
2020/12/01 08:50:27;;;;;;;24.05;13.15;;;;;;;5.90;100.00;100749.00;10445877;28;20402;-70
2020/12/01 08:55:34;;;;;;;25.23;13.80;;;;;;;5.93;100.00;100756.81;10456082;28;20052;-71
2020/12/01 09:00:36;;;;;;;21.10;11.77;;;;;;;6.04;100.00;100773.09;10455562;28;20473;-71
2020/12/01 09:05:47;;;;;;;25.90;15.20;;;;;;;6.09;100.00;100766.00;10456145;28;20052;-71
2020/12/01 09:10:49;;;;;;;26.52;13.57;;;;;;;6.11;100.00;100762.50;10456002;28;20053;-70
2020/12/01 09:26:20;;;;;;;25.48;13.40;;;;;;;6.82;100.00;100792.97;10485474;28;20040;-71
2020/12/01 09:31:25;;;;;;;25.70;13.07;;;;;;;6.88;100.00;100784.09;10472508;28;20060;-70
2020/12/01 09:36:26;;;;;;;22.27;11.30;;;;;;;6.94;100.00;100783.94;10453987;28;20052;-70
2020/12/01 09:41:28;;;;;;;24.40;11.15;;;;;;;7.06;100.00;100777.50;10454544;28;20041;-69
2020/12/01 09:46:44;;;;;;;22.73;13.85;;;;;;;7.25;100.00;100781.34;10474198;28;20051;-69
2020/12/01 09:51:55;;;;;;;23.42;11.50;;;;;;;7.51;100.00;100781.47;10496875;28;20041;-69
2020/12/01 09:57:05;;;;;;;20.38;13.38;;;;;;;8.38;100.00;100789.31;10484145;28;20060;-70
2020/12/01 10:39:00;;;;;;;14.57;9.43;;;;;;;7.88;100.00;100749.75;10453276;28;20049;-69
2020/12/01 10:44:02;;;;;;;13.50;9.23;;;;;;;7.86;100.00;100741.09;10459932;28;20052;-68
2020/12/01 10:49:04;;;;;;;11.50;8.25;;;;;;;7.71;100.00;100754.66;10501692;28;20044;-68
2020/12/01 10:54:05;;;;;;;12.02;8.80;;;;;;;7.59;100.00;100748.03;10472759;28;20496;-68
2020/12/01 10:59:06;;;;;;;13.13;9.75;;;;;;;7.48;100.00;100747.47;10430954;28;20053;-69
2020/12/01 11:04:07;;;;;;;13.23;9.75;;;;;;;7.36;100.00;100742.59;10450783;28;20040;-69
2020/12/01 11:09:10;;;;;;;12.88;10.07;;;;;;;7.24;100.00;100742.94;10445166;28;20045;-68
2020/12/01 11:14:12;;;;;;;12.63;8.70;;;;;;;7.14;100.00;100749.34;10446356;28;20040;-69
2020/12/01 11:19:13;;;;;;;17.60;11.75;;;;;;;7.00;100.00;100746.25;10458893;28;20099;-69
2020/12/01 11:24:14;;;;;;;16.50;11.48;;;;;;;7.03;100.00;100759.28;10456970;28;20603;-69
2020/12/01 11:29:15;;;;;;;13.07;9.52;;;;;;;7.05;100.00;100760.06;10495877;28;20040;-69
2020/12/01 11:34:17;;;;;;;10.40;6.97;;;;;;;7.07;100.00;100771.38;10460304;28;20504;-69
2020/12/01 11:39:18;;;;;;;11.38;8.05;;;;;;;7.06;100.00;100777.50;10459091;28;20041;-68
2020/12/01 11:44:20;;;;;;;9.25;6.68;;;;;;;7.09;100.00;100775.69;10461105;28;20515;-68
2020/12/01 11:49:21;;;;;;;8.88;6.82;;;;;;;7.20;100.00;100791.94;10500960;28;20479;-68
2020/12/01 11:54:22;;;;;;;7.85;5.78;;;;;;;7.35;100.00;100801.16;10500287;28;20086;-69
2020/12/01 11:59:23;;;;;;;7.20;5.82;;;;;;;7.30;100.00;100795.16;10461579;28;20061;-69
2020/12/01 12:04:25;;;;;;;8.23;6.25;;;;;;;7.20;100.00;100796.31;10468049;28;20044;-69
2020/12/01 12:09:26;;;;;;;7.32;5.57;;;;;;;7.36;100.00;100802.03;10495262;28;20377;-68
2020/12/01 12:14:27;;;;;;;6.30;5.35;;;;;;;7.24;100.00;100792.72;10498418;28;20040;-69
2020/12/01 12:19:28;;;;;;;7.85;4.82;;;;;;;7.32;100.00;100790.75;10494238;28;20050;-69
2020/12/01 12:24:29;;;;;;;7.00;5.35;;;;;;;7.40;100.00;100795.78;10488829;28;20054;-69
2020/12/01 12:29:31;;;;;;;8.05;6.78;;;;;;;7.51;100.00;100797.22;10470402;28;20492;-69
2020/12/01 12:34:32;;;;;;;7.38;6.25;;;;;;;7.59;100.00;100797.84;10474416;28;20131;-69
2020/12/01 12:39:33;;;;;;;9.45;5.60;;;;;;;7.48;100.00;100793.81;10478317;28;20047;-68
2020/12/01 12:44:34;;;;;;;8.05;4.63;;;;;;;7.38;100.00;100787.09;10497254;28;20502;-69
2020/12/01 12:49:37;;;;;;;8.93;4.28;;;;;;;7.31;100.00;100786.41;10477323;28;20056;-68
2020/12/01 12:54:38;;;;;;;5.60;4.32;;;;;;;7.33;100.00;100791.63;10493452;28;20048;-69
2020/12/01 12:59:39;;;;;;;7.10;3.47;;;;;;;7.28;100.00;100791.72;10468243;28;20400;-69
2020/12/01 13:04:40;;;;;;;15.73;7.20;;;;;;;7.42;100.00;100794.84;10489407;28;20043;-69
2020/12/01 13:09:41;;;;;;;11.93;3.83;;;;;;;7.24;100.00;100796.22;10496700;28;20047;-68
2020/12/01 13:14:42;;;;;;;12.32;4.40;;;;;;;7.24;100.00;100801.44;10495290;28;20048;-69
2020/12/01 13:19:44;;;;;;;13.02;4.03;;;;;;;7.24;100.00;100803.22;10460648;28;20040;-68
2020/12/01 13:24:45;;;;;;;16.15;4.88;;;;;;;7.27;100.00;100808.38;10478091;28;20052;-69
2020/12/01 13:29:46;;;;;;;14.38;4.03;;;;;;;7.29;100.00;100810.94;10473129;28;20052;-70
2020/12/01 13:34:47;;;;;;;12.43;5.00;;;;;;;7.28;100.00;100806.63;10495404;28;20044;-69
2020/12/01 13:39:49;;;;;;;13.73;5.80;;;;;;;7.24;100.00;100818.94;10477370;28;20504;-69
2020/12/01 13:44:50;;;;;;;14.52;6.68;;;;;;;7.25;100.00;100825.91;10494610;28;20044;-69
2020/12/01 13:49:51;;;;;;;15.48;6.03;;;;;;;7.30;100.00;100824.00;10495507;28;20040;-68
2020/12/01 13:54:53;;;;;;;10.90;4.03;;;;;;;7.27;100.00;100829.34;10474109;28;20036;-68
2020/12/01 13:59:54;;;;;;;24.50;5.50;;;;;;;7.20;100.00;100838.25;10441650;28;20064;-68
2020/12/01 14:04:55;;;;;;;21.02;6.78;;;;;;;7.20;100.00;100841.72;10485008;28;20041;-68
2020/12/01 14:09:56;;;;;;;13.00;5.80;;;;;;;7.20;100.00;100859.22;10493851;28;20045;-69
2020/12/01 14:14:57;;;;;;;20.58;7.10;;;;;;;7.16;100.00;100858.44;10496284;28;20040;-69
2020/12/01 14:19:59;;;;;;;14.15;6.45;;;;;;;7.18;100.00;100861.03;10498190;28;20577;-70
2020/12/01 14:25:00;;;;;;;20.17;5.47;;;;;;;7.12;100.00;100858.53;10438940;28;20041;-70
2020/12/01 14:30:01;;;;;;;15.63;4.18;;;;;;;7.12;100.00;100866.41;10489480;28;20424;-70
2020/12/01 14:35:04;;;;;;;14.70;4.05;;;;;;;7.11;100.00;100868.16;10485559;28;20499;-69
2020/12/01 14:40:06;;;;;;;25.35;12.38;;;;;;;7.05;100.00;100878.81;10462107;28;20040;-69
2020/12/01 14:45:08;;;;;;;15.98;6.63;;;;;;;7.04;100.00;100886.69;10464710;28;20045;-70
2020/12/01 14:50:27;;;;;;;15.70;4.90;;;;;;;7.08;100.00;100889.22;10465063;28;20501;-69
2020/12/01 14:55:34;;;;;;;19.20;4.82;;;;;;;6.97;100.00;100887.75;10462153;28;20040;-69
2020/12/01 15:01:17;;;;;;;15.57;4.53;;;;;;;6.93;100.00;100894.00;10439667;28;20569;-69
2020/12/01 15:06:41;;;;;;;16.73;5.47;;;;;;;6.90;100.00;100896.66;10426985;28;20517;-69
2020/12/01 15:11:59;;;;;;;15.85;6.43;;;;;;;6.93;100.00;100907.94;10473023;28;20052;-70
2020/12/01 15:17:16;;;;;;;15.57;5.35;;;;;;;6.90;100.00;100909.75;10467880;28;20036;-68
2020/12/01 15:22:36;;;;;;;21.70;7.47;;;;;;;6.94;100.00;100914.91;10482995;28;20045;-68
2020/12/01 15:27:40;;;;;;;17.17;4.68;;;;;;;6.93;100.00;100915.81;10419972;28;20503;-70
2020/12/01 15:32:42;;;;;;;18.73;5.33;;;;;;;6.88;100.00;100914.16;10461863;28;20447;-70
2020/12/01 15:37:47;;;;;;;18.05;5.35;;;;;;;6.93;100.00;100926.28;10460565;28;20439;-71
2020/12/01 15:42:48;;;;;;;17.42;5.22;;;;;;;6.94;100.00;100933.25;10460977;28;20052;-69
2020/12/01 15:47:49;;;;;;;21.48;5.75;;;;;;;6.86;100.00;100933.41;10448972;28;20053;-69
2020/12/01 15:53:04;;;;;;;18.05;6.20;;;;;;;6.91;100.00;100932.44;10452055;28;20041;-69
2020/12/01 15:58:18;;;;;;;16.20;4.87;;;;;;;6.94;100.00;100935.84;10423742;28;20057;-70
2020/12/01 16:04:05;;;;;;;22.40;7.85;;;;;;;6.83;100.00;100930.88;10440303;28;20068;-69
2020/12/01 16:09:12;;;;;;;14.13;5.57;;;;;;;6.92;100.00;100937.66;10442446;28;20053;-69
2020/12/01 16:14:42;;;;;;;16.98;6.35;;;;;;;6.86;100.00;100941.25;10460956;28;20044;-69
2020/12/01 16:19:52;;;;;;;14.93;6.22;;;;;;;6.85;100.00;100941.31;10449960;28;20404;-68
2020/12/01 16:24:54;;;;;;;15.90;5.93;;;;;;;6.82;100.00;100950.09;10468250;28;20434;-70
2020/12/01 16:30:07;;;;;;;17.75;7.15;;;;;;;6.86;100.00;100950.91;10464505;28;20075;-70
2020/12/01 16:35:10;;;;;;;16.70;6.53;;;;;;;6.85;100.00;100963.13;10435558;28;20033;-70
2020/12/01 16:40:21;;;;;;;13.05;5.72;;;;;;;6.88;100.00;100964.78;10416975;28;20041;-70
2020/12/01 16:45:36;;;;;;;13.98;7.90;;;;;;;6.90;100.00;100964.75;10406342;28;20502;-70
2020/12/01 16:50:40;;;;;;;16.55;8.85;;;;;;;6.86;100.00;100967.44;10439139;28;20044;-70
2020/12/01 16:55:45;;;;;;;28.00;18.07;;;;;;;6.85;100.00;100972.75;10431166;28;20401;-70
2020/12/01 17:00:50;;;;;;;19.35;10.05;;;;;;;6.88;100.00;100980.50;10430260;28;20048;-70
2020/12/01 17:06:19;;;;;;;21.92;10.88;;;;;;;6.88;100.00;100985.75;10447806;28;20045;-70
2020/12/01 17:11:21;;;;;;;18.88;11.50;;;;;;;6.88;100.00;100988.38;10407627;28;20052;-71
2020/12/01 17:16:53;;;;;;;19.60;11.45;;;;;;;6.85;100.00;101004.16;10438820;28;20041;-70
2020/12/01 17:22:02;;;;;;;18.75;12.48;;;;;;;6.88;100.00;101001.47;10439688;28;20580;-70
2020/12/01 17:27:04;;;;;;;29.58;20.58;;;;;;;6.93;100.00;101019.69;10448279;28;20063;-70
2020/12/01 17:32:42;;;;;;;24.52;14.82;;;;;;;6.93;100.00;101020.56;10423074;28;20051;-71
2020/12/01 17:38:18;;;;;;;32.00;19.60;;;;;;;6.96;100.00;101020.47;10435411;28;20053;-68
2020/12/01 17:43:25;;;;;;;;;;;;;;;6.96;100.00;101046.66;10407638;28;20061;-72
2020/12/01 17:48:36;;;;;;;21.80;15.80;;;;;;;6.85;100.00;101044.31;10421543;28;19928;-72
2020/12/01 17:54:05;;;;;;;16.25;12.13;;;;;;;6.84;100.00;101054.81;10418814;28;20413;-69
2020/12/01 17:59:14;;;;;;;15.38;13.90;;;;;;;6.69;100.00;101055.16;10435498;28;20049;-70
2020/12/01 18:04:17;;;;;;;13.20;11.18;;;;;;;6.63;100.00;101068.34;10401515;28;20603;-70
2020/12/01 18:09:18;;;;;;;12.40;10.43;;;;;;;6.52;100.00;101058.13;10452683;28;20481;-70
2020/12/01 18:14:34;;;;;;;19.80;16.63;;;;;;;6.04;100.00;101065.13;10416775;28;20488;-69
2020/12/01 18:20:03;;;;;;;34.20;21.67;;;;;;;5.93;100.00;101075.81;10453681;28;20040;-70
2020/12/01 18:25:24;;;;;;;22.30;16.15;;;;;;;5.52;100.00;101086.06;10445890;28;20038;-72
2020/12/01 18:30:29;;;;;;;21.08;14.77;;;;;;;5.53;100.00;101104.31;10477701;28;20036;-72
2020/12/01 18:35:33;;;;;;;;;;;;;;;5.46;100.00;101115.75;10475089;28;20056;-71
2020/12/01 18:40:40;;;;;;;18.92;14.02;;;;;;;5.36;100.00;101118.53;10443815;28;19925;-71
2020/12/01 18:45:50;;;;;;;16.63;13.27;;;;;;;5.32;100.00;101125.56;10443981;28;20048;-71
2020/12/01 18:50:51;;;;;;;20.45;15.05;;;;;;;5.39;100.00;101136.75;10440605;28;20049;-71
2020/12/01 18:55:54;;;;;;;20.08;14.25;;;;;;;5.37;100.00;101143.75;10448708;28;20048;-71
2020/12/01 19:00:57;;;;;;;22.90;15.80;;;;;;;5.37;100.00;101149.84;10452619;28;20049;-71
2020/12/01 19:06:00;;;;;;;20.13;14.18;;;;;;;5.27;100.00;101150.88;10461340;28;20373;-71
2020/12/01 19:11:01;;;;;;;23.38;15.77;;;;;;;5.32;100.00;101159.50;10466207;28;20047;-71
2020/12/01 19:16:02;;;;;;;26.00;16.70;;;;;;;5.26;100.00;101167.44;10480832;28;20116;-71
2020/12/01 19:21:06;;;;;;;24.00;17.67;;;;;;;5.33;100.00;101184.75;10462151;28;20041;-71
2020/12/01 19:26:17;;;;;;;25.98;16.48;;;;;;;5.35;100.00;101177.78;10458963;28;20047;-71
2020/12/01 19:31:21;;;;;;;24.95;16.98;;;;;;;5.23;100.00;101189.22;10460303;28;20386;-71
2020/12/01 19:36:23;;;;;;;25.58;16.08;;;;;;;5.25;100.00;101204.88;10404545;28;20073;-71
2020/12/01 19:41:24;;;;;;;28.17;19.23;;;;;;;5.31;100.00;101210.03;10417555;28;20374;-71
2020/12/01 19:46:26;;;;;;;31.35;20.05;;;;;;;5.15;100.00;101206.75;10450980;28;20492;-71
2020/12/01 19:51:27;;;;;;;29.27;19.55;;;;;;;5.12;100.00;101216.34;10459290;28;20488;-71
2020/12/01 19:56:28;;;;;;;30.52;20.13;;;;;;;5.17;100.00;101220.66;10456969;28;20527;-71
2020/12/01 20:01:31;;;;;;;35.03;21.08;;;;;;;5.12;100.00;101224.19;10444729;28;20057;-71
2020/12/01 20:06:32;;;;;;;34.63;22.77;;;;;;;5.25;100.00;101224.03;10477484;28;20040;-71
2020/12/01 20:11:34;;;;;;;26.65;18.27;;;;;;;5.29;100.00;101230.94;10467725;28;20052;-71
2020/12/01 20:16:35;;;;;;;36.30;22.58;;;;;;;5.25;100.00;101237.09;10446415;28;20028;-71
2020/12/01 20:21:40;;;;;;;30.80;18.17;;;;;;;5.26;100.00;101236.22;10456273;28;20439;-71
2020/12/01 20:26:41;;;;;;;34.63;22.17;;;;;;;5.23;100.00;101244.09;10476189;28;20040;-71
2020/12/01 20:31:43;;;;;;;26.52;18.48;;;;;;;5.13;100.00;101236.38;10453245;28;20037;-71
2020/12/01 20:36:44;;;;;;;18.83;14.35;;;;;;;5.25;100.00;101247.56;10462529;28;20045;-71
2020/12/01 20:41:45;;;;;;;26.70;17.05;;;;;;;5.22;100.00;101244.09;10460184;28;20460;-71
2020/12/01 20:46:46;;;;;;;18.83;13.82;;;;;;;5.29;100.00;101237.91;10462658;28;20044;-71
2020/12/01 20:51:48;;;;;;;21.20;16.58;;;;;;;5.33;100.00;101258.78;10458002;28;20052;-71
2020/12/01 20:56:51;;;;;;;25.73;18.05;;;;;;;5.27;100.00;101253.59;10456838;28;20048;-71
2020/12/01 21:01:53;;;;;;;21.98;16.73;;;;;;;5.25;100.00;101262.34;10455749;28;20048;-71
2020/12/01 21:06:55;;;;;;;25.20;18.58;;;;;;;5.26;100.00;101261.47;10462516;28;20431;-71
2020/12/01 21:11:58;;;;;;;24.05;18.27;;;;;;;5.41;100.00;101284.81;10483073;28;20036;-71
2020/12/01 21:17:08;;;;;;;23.10;16.67;;;;;;;5.35;100.00;101284.88;10473148;28;20586;-71
2020/12/01 21:22:09;;;;;;;23.77;17.27;;;;;;;5.37;100.00;101283.09;10476829;28;20048;-71
2020/12/01 21:27:22;;;;;;;24.55;17.55;;;;;;;5.36;100.00;101283.13;10471528;28;20391;-71
2020/12/01 21:32:25;;;;;;;28.42;18.95;;;;;;;5.25;100.00;101278.91;10449508;28;20056;-71
2020/12/01 21:37:30;;;;;;;27.35;17.55;;;;;;;5.25;100.00;101294.56;10455372;28;20037;-71
2020/12/01 21:42:53;;;;;;;23.60;17.38;;;;;;;5.21;100.00;101300.69;10450906;28;20046;-71
2020/12/01 21:47:57;;;;;;;22.02;15.82;;;;;;;5.21;100.00;101302.44;10424124;28;20049;-71
2020/12/01 21:53:06;;;;;;;27.42;17.27;;;;;;;5.29;100.00;101296.25;10435223;28;20041;-71
2020/12/01 21:58:13;;;;;;;21.33;16.10;;;;;;;5.13;100.00;101299.06;10440080;28;20492;-71
2020/12/01 22:03:55;;;;;;;20.25;15.98;;;;;;;5.06;100.00;101305.22;10473641;28;20033;-71
2020/12/01 22:09:10;;;;;;;22.80;16.80;;;;;;;4.99;100.00;101300.94;10461901;28;20044;-71
2020/12/01 22:14:26;;;;;;;20.02;16.33;;;;;;;4.91;100.00;101298.41;10447551;28;20072;-71
2020/12/01 22:19:27;;;;;;;22.20;17.23;;;;;;;4.82;100.00;101299.38;10472369;28;20396;-71
2020/12/01 22:24:58;;;;;;;24.05;19.52;;;;;;;4.82;100.00;101312.44;10463120;28;20045;-71
2020/12/01 22:30:30;;;;;;;19.45;15.27;;;;;;;4.64;100.00;101301.28;10440517;28;20129;-70
2020/12/01 22:35:31;;;;;;;21.13;15.98;;;;;;;4.65;100.00;101310.84;10405514;28;20064;-71
2020/12/01 22:40:33;;;;;;;24.30;19.05;;;;;;;4.63;100.00;101305.63;10430107;28;20499;-71
2020/12/01 22:46:03;;;;;;;19.58;15.90;;;;;;;4.58;100.00;101313.50;10436896;28;20127;-71
2020/12/01 22:51:20;;;;;;;23.40;18.63;;;;;;;4.68;100.00;101305.59;10441771;28;20047;-71
2020/12/01 22:56:38;;;;;;;24.90;18.92;;;;;;;4.60;100.00;101297.84;10468713;28;20052;-71
2020/12/01 23:01:51;;;;;;;18.10;14.80;;;;;;;4.80;100.00;101311.56;10480229;28;20450;-70
2020/12/01 23:07:01;;;;;;;23.95;16.20;;;;;;;4.79;100.00;101311.56;10490617;28;20060;-71
2020/12/01 23:12:05;;;;;;;212.80;81.22;;;;;;;4.78;100.00;101315.94;10502666;28;20040;-71
2020/12/01 23:17:16;;;;;;;131.13;58.97;;;;;;;4.82;100.00;101315.03;10468709;28;20060;-71
2020/12/01 23:22:24;;;;;;;38.65;22.25;;;;;;;5.00;100.00;101321.84;10411695;28;20069;-71
2020/12/01 23:27:30;;;;;;;29.73;19.30;;;;;;;4.94;100.00;101329.69;10401598;28;20049;-71
2020/12/01 23:32:33;;;;;;;20.25;15.40;;;;;;;4.94;100.00;101325.34;10419980;28;20065;-71
2020/12/01 23:37:56;;;;;;;20.33;15.50;;;;;;;5.04;100.00;101326.13;10434350;28;20048;-71
2020/12/01 23:43:10;;;;;;;17.48;13.85;;;;;;;4.96;100.00;101325.34;10419258;28;20050;-71
2020/12/01 23:48:11;;;;;;;21.58;15.55;;;;;;;5.04;100.00;101322.66;10417089;28;20436;-71
2020/12/01 23:53:12;;;;;;;24.30;15.65;;;;;;;4.99;100.00;101321.84;10456231;28;20476;-71